Time,TemperatureF,DewpointF,PressureIn,WindDirection,WindDirectionDegrees,WindSpeedMPH,WindSpeedGustMPH,Humidity,HourlyPrecipIn,Conditions,Clouds,dailyrainin,SoftwareType,DateUTC
2013-02-22 00:04:00,43.1,29.0,30.18,North,0,0.0,0.0,57,0.00,,,0.00,WUHU216HW,2013-02-22 08:04:00,
2013-02-22 00:09:00,42.9,28.8,30.18,North,0,0.0,0.0,57,0.00,,,0.00,WUHU216HW,2013-02-22 08:09:00,
2013-02-22 00:14:00,42.7,28.6,30.19,North,0,0.0,0.0,57,0.00,,,0.00,WUHU216HW,2013-02-22 08:14:00,
2013-02-22 00:19:00,42.6,28.5,30.18,North,0,0.0,0.0,57,0.00,,,0.00,WUHU216HW,2013-02-22 08:19:00,
2013-02-22 00:24:00,42.7,28.6,30.18,North,0,0.0,0.0,57,0.00,,,0.00,WUHU216HW,2013-02-22 08:24:00,
2013-02-22 00:29:00,42.7,28.6,30.18,North,0,0.0,0.0,57,0.00,,,0.00,WUHU216HW,2013-02-22 08:29:00,
2013-02-22 00:34:00,42.6,28.0,30.18,North,0,0.0,0.0,56,0.00,,,0.00,WUHU216HW,2013-02-22 08:34:00,
2013-02-22 00:39:00,42.7,28.5,30.18,North,0,0.0,0.0,57,0.00,,,0.00,WUHU216HW,2013-02-22 08:39:00,
2013-02-22 00:45:00,43.5,29.3,30.18,North,0,0.0,0.0,57,0.00,,,0.00,WUHU216HW,2013-02-22 08:45:00,
2013-02-22 00:50:00,43.6,28.9,30.18,North,0,0.0,0.0,56,0.00,,,0.00,WUHU216HW,2013-02-22 08:50:00,
2013-02-22 00:55:00,43.8,29.6,30.18,North,0,0.0,0.0,57,0.00,,,0.00,WUHU216HW,2013-02-22 08:55:00,
2013-02-22 01:00:00,43.5,28.9,30.18,North,0,0.0,0.0,56,0.00,,,0.00,WUHU216HW,2013-02-22 09:00:00,
2013-02-22 01:05:00,43.7,29.1,30.19,North,0,0.0,0.0,56,0.00,,,0.00,WUHU216HW,2013-02-22 09:05:00,
2013-02-22 01:10:00,43.5,28.9,30.19,North,0,0.0,0.0,56,0.00,,,0.00,WUHU216HW,2013-02-22 09:10:00,
2013-02-22 01:15:00,43.5,28.9,30.19,North,0,0.0,0.0,56,0.00,,,0.00,WUHU216HW,2013-02-22 09:15:00,
2013-02-22 01:20:00,43.9,29.3,30.19,North,0,0.0,0.0,56,0.00,,,0.00,WUHU216HW,2013-02-22 09:20:00,
2013-02-22 01:25:00,43.7,29.5,30.19,North,0,0.0,0.0,57,0.00,,,0.00,WUHU216HW,2013-02-22 09:25:00,
2013-02-22 01:30:00,43.5,29.3,30.19,North,0,0.0,0.0,57,0.00,,,0.00,WUHU216HW,2013-02-22 09:30:00,
2013-02-22 01:35:00,43.5,29.3,30.19,North,0,0.0,0.0,57,0.00,,,0.00,WUHU216HW,2013-02-22 09:35:00,
2013-02-22 01:40:00,43.4,29.7,30.19,North,0,0.0,0.0,58,0.00,,,0.00,WUHU216HW,2013-02-22 09:40:00,
2013-02-22 01:45:00,43.0,28.9,30.18,North,0,0.0,0.0,57,0.00,,,0.00,WUHU216HW,2013-02-22 09:45:00,
2013-02-22 01:51:00,42.8,28.7,30.18,North,0,0.0,0.0,57,0.00,,,0.00,WUHU216HW,2013-02-22 09:51:00,
2013-02-22 01:56:00,42.8,28.7,30.18,North,0,0.0,0.0,57,0.00,,,0.00,WUHU216HW,2013-02-22 09:56:00,
2013-02-22 02:01:00,43.0,28.8,30.18,North,0,0.0,0.0,57,0.00,,,0.00,WUHU216HW,2013-02-22 10:01:00,
2013-02-22 02:06:00,43.0,28.8,30.18,North,0,0.0,0.0,57,0.00,,,0.00,WUHU216HW,2013-02-22 10:06:00,
2013-02-22 02:11:00,43.2,29.0,30.18,North,0,0.0,0.0,57,0.00,,,0.00,WUHU216HW,2013-02-22 10:11:00,
2013-02-22 02:16:00,43.4,29.2,30.17,North,0,0.0,0.0,57,0.00,,,0.00,WUHU216HW,2013-02-22 10:16:00,
2013-02-22 02:21:00,43.5,29.3,30.17,North,0,0.0,0.0,57,0.00,,,0.00,WUHU216HW,2013-02-22 10:21:00,
2013-02-22 02:26:00,43.7,29.5,30.18,North,0,0.0,0.0,57,0.00,,,0.00,WUHU216HW,2013-02-22 10:26:00,
2013-02-22 02:31:00,43.9,28.8,30.18,North,0,0.0,0.0,55,0.00,,,0.00,WUHU216HW,2013-02-22 10:31:00,
2013-02-22 02:37:00,44.1,29.4,30.18,North,0,0.0,0.0,56,0.00,,,0.00,WUHU216HW,2013-02-22 10:37:00,
2013-02-22 02:42:00,44.4,29.3,30.18,North,0,0.0,0.0,55,0.00,,,0.00,WUHU216HW,2013-02-22 10:42:00,
2013-02-22 02:47:00,44.8,29.6,30.17,North,0,0.0,0.0,55,0.00,,,0.00,WUHU216HW,2013-02-22 10:47:00,
2013-02-22 02:52:00,45.2,29.6,30.17,North,0,0.0,0.0,54,0.00,,,0.00,WUHU216HW,2013-02-22 10:52:00,
2013-02-22 02:57:00,45.2,30.0,30.17,North,0,0.0,0.0,55,0.00,,,0.00,WUHU216HW,2013-02-22 10:57:00,
2013-02-22 03:02:00,45.2,29.1,30.17,North,0,0.0,0.0,53,0.00,,,0.00,WUHU216HW,2013-02-22 11:02:00,
2013-02-22 03:07:00,45.3,29.7,30.17,North,0,0.0,0.0,54,0.00,,,0.00,WUHU216HW,2013-02-22 11:07:00,
2013-02-22 03:12:00,44.4,29.3,30.18,North,0,0.0,0.0,55,0.00,,,0.00,WUHU216HW,2013-02-22 11:12:00,
2013-02-22 03:17:00,43.9,29.3,30.18,North,0,0.0,0.0,56,0.00,,,0.00,WUHU216HW,2013-02-22 11:17:00,
2013-02-22 03:22:00,43.7,29.1,30.18,North,0,0.0,0.0,56,0.00,,,0.00,WUHU216HW,2013-02-22 11:22:00,
2013-02-22 03:27:00,43.7,29.5,30.18,North,0,0.0,0.0,57,0.00,,,0.00,WUHU216HW,2013-02-22 11:27:00,
2013-02-22 03:32:00,43.2,29.1,30.18,North,0,0.0,0.0,57,0.00,,,0.00,WUHU216HW,2013-02-22 11:32:00,
2013-02-22 03:37:00,43.1,28.9,30.18,North,0,0.0,0.0,57,0.00,,,0.00,WUHU216HW,2013-02-22 11:37:00,
2013-02-22 03:43:00,43.1,28.9,30.17,North,0,0.0,0.0,57,0.00,,,0.00,WUHU216HW,2013-02-22 11:43:00,
2013-02-22 03:48:00,42.7,28.5,30.18,North,0,0.0,0.0,57,0.00,,,0.00,WUHU216HW,2013-02-22 11:48:00,
2013-02-22 03:53:00,42.6,28.4,30.18,North,0,0.0,0.0,57,0.00,,,0.00,WUHU216HW,2013-02-22 11:53:00,
2013-02-22 03:58:00,42.4,28.3,30.18,North,0,0.0,0.0,57,0.00,,,0.00,WUHU216HW,2013-02-22 11:58:00,
2013-02-22 04:03:00,42.2,28.1,30.17,North,0,0.0,0.0,57,0.00,,,0.00,WUHU216HW,2013-02-22 12:03:00,
2013-02-22 04:08:00,42.6,28.5,30.17,North,0,0.0,0.0,57,0.00,,,0.00,WUHU216HW,2013-02-22 12:08:00,
2013-02-22 04:13:00,42.0,27.9,30.17,North,0,0.0,0.0,57,0.00,,,0.00,WUHU216HW,2013-02-22 12:13:00,
2013-02-22 04:18:00,41.5,27.5,30.17,North,0,0.0,0.0,57,0.00,,,0.00,WUHU216HW,2013-02-22 12:18:00,
2013-02-22 04:23:00,41.3,27.3,30.18,North,0,0.0,0.0,57,0.00,,,0.00,WUHU216HW,2013-02-22 12:23:00,
2013-02-22 04:28:00,40.9,26.9,30.17,North,0,0.0,0.0,57,0.00,,,0.00,WUHU216HW,2013-02-22 12:28:00,
2013-02-22 04:33:00,41.1,27.1,30.17,North,0,0.0,0.0,57,0.00,,,0.00,WUHU216HW,2013-02-22 12:33:00,
2013-02-22 04:39:00,41.2,27.1,30.18,North,0,0.0,0.0,57,0.00,,,0.00,WUHU216HW,2013-02-22 12:39:00,
2013-02-22 04:44:00,41.4,27.3,30.18,North,0,0.0,0.0,57,0.00,,,0.00,WUHU216HW,2013-02-22 12:44:00,
2013-02-22 04:49:00,41.8,28.1,30.18,North,0,0.0,0.0,58,0.00,,,0.00,WUHU216HW,2013-02-22 12:49:00,
2013-02-22 04:54:00,41.8,28.1,30.18,North,0,0.0,0.0,58,0.00,,,0.00,WUHU216HW,2013-02-22 12:54:00,
2013-02-22 04:59:00,42.1,27.6,30.18,North,0,0.0,0.0,56,0.00,,,0.00,WUHU216HW,2013-02-22 12:59:00,
2013-02-22 05:04:00,42.5,27.9,30.19,North,0,0.0,0.0,56,0.00,,,0.00,WUHU216HW,2013-02-22 13:04:00,
2013-02-22 05:09:00,42.7,28.2,30.19,North,0,0.0,0.0,56,0.00,,,0.00,WUHU216HW,2013-02-22 13:09:00,
2013-02-22 05:14:00,42.3,28.2,30.19,North,0,0.0,0.0,57,0.00,,,0.00,WUHU216HW,2013-02-22 13:14:00,
2013-02-22 05:19:00,42.6,28.4,30.19,North,0,0.0,0.0,57,0.00,,,0.00,WUHU216HW,2013-02-22 13:19:00,
2013-02-22 05:25:00,42.8,28.2,30.19,North,0,0.0,0.0,56,0.00,,,0.00,WUHU216HW,2013-02-22 13:25:00,
2013-02-22 05:30:00,42.9,28.3,30.20,North,0,0.0,0.0,56,0.00,,,0.00,WUHU216HW,2013-02-22 13:30:00,
2013-02-22 05:35:00,43.3,28.7,30.20,North,0,0.0,0.0,56,0.00,,,0.00,WUHU216HW,2013-02-22 13:35:00,
2013-02-22 05:40:00,43.7,29.1,30.20,North,0,0.0,0.0,56,0.00,,,0.00,WUHU216HW,2013-02-22 13:40:00,
2013-02-22 05:45:00,43.8,29.2,30.20,North,0,0.0,0.0,56,0.00,,,0.00,WUHU216HW,2013-02-22 13:45:00,
2013-02-22 05:50:00,44.2,29.1,30.20,North,0,0.0,0.0,55,0.00,,,0.00,WUHU216HW,2013-02-22 13:50:00,
2013-02-22 05:55:00,44.5,29.3,30.20,North,0,0.0,0.0,55,0.00,,,0.00,WUHU216HW,2013-02-22 13:55:00,
2013-02-22 06:00:00,44.5,29.3,30.20,North,0,0.0,0.0,55,0.00,,,0.00,WUHU216HW,2013-02-22 14:00:00,
2013-02-22 06:05:00,44.7,29.1,30.20,North,0,0.0,0.0,54,0.00,,,0.00,WUHU216HW,2013-02-22 14:05:00,
2013-02-22 06:10:00,44.3,29.2,30.20,North,0,0.0,0.0,55,0.00,,,0.00,WUHU216HW,2013-02-22 14:10:00,
2013-02-22 06:15:00,43.9,29.3,30.20,North,0,0.0,0.0,56,0.00,,,0.00,WUHU216HW,2013-02-22 14:15:00,
2013-02-22 06:20:00,43.8,29.2,30.20,North,0,0.0,0.0,56,0.00,,,0.00,WUHU216HW,2013-02-22 14:20:00,
2013-02-22 06:26:00,44.0,29.3,30.20,North,0,0.0,0.0,56,0.00,,,0.00,WUHU216HW,2013-02-22 14:26:00,
2013-02-22 06:31:00,44.0,28.9,30.20,North,0,0.0,0.0,55,0.00,,,0.00,WUHU216HW,2013-02-22 14:31:00,
2013-02-22 06:36:00,43.9,29.2,30.20,North,0,0.0,0.0,56,0.00,,,0.00,WUHU216HW,2013-02-22 14:36:00,
2013-02-22 06:41:00,43.7,28.6,30.20,North,0,0.0,0.0,55,0.00,,,0.00,WUHU216HW,2013-02-22 14:41:00,
2013-02-22 06:46:00,43.5,29.3,30.20,North,0,0.0,0.0,57,0.00,,,0.00,WUHU216HW,2013-02-22 14:46:00,
2013-02-22 06:51:00,43.1,29.0,30.20,North,0,0.0,0.0,57,0.00,,,0.00,WUHU216HW,2013-02-22 14:51:00,
2013-02-22 06:56:00,43.1,28.9,30.20,North,0,0.0,0.0,57,0.00,,,0.00,WUHU216HW,2013-02-22 14:56:00,
2013-02-22 07:01:00,43.1,28.5,30.20,North,0,0.0,0.0,56,0.00,,,0.00,WUHU216HW,2013-02-22 15:01:00,
2013-02-22 07:06:00,43.2,28.6,30.20,North,0,0.0,0.0,56,0.00,,,0.00,WUHU216HW,2013-02-22 15:06:00,
2013-02-22 07:11:00,43.6,29.0,30.20,North,0,0.0,0.0,56,0.00,,,0.00,WUHU216HW,2013-02-22 15:11:00,
2013-02-22 07:16:00,44.0,29.4,30.21,North,0,0.0,0.0,56,0.00,,,0.00,WUHU216HW,2013-02-22 15:16:00,
2013-02-22 07:21:00,43.9,29.7,30.21,North,0,0.0,0.0,57,0.00,,,0.00,WUHU216HW,2013-02-22 15:21:00,
2013-02-22 07:26:00,44.1,29.4,30.21,North,0,0.0,0.0,56,0.00,,,0.00,WUHU216HW,2013-02-22 15:26:00,
2013-02-22 07:31:00,44.1,29.4,30.21,North,0,0.0,0.0,56,0.00,,,0.00,WUHU216HW,2013-02-22 15:31:00,
2013-02-22 07:37:00,44.1,29.5,30.21,North,0,0.0,0.0,56,0.00,,,0.00,WUHU216HW,2013-02-22 15:37:00,
2013-02-22 07:42:00,44.2,29.6,30.21,North,0,0.0,0.0,56,0.00,,,0.00,WUHU216HW,2013-02-22 15:42:00,
2013-02-22 07:47:00,44.9,30.1,30.22,North,0,0.0,0.0,56,0.00,,,0.00,WUHU216HW,2013-02-22 15:47:00,
2013-02-22 07:52:00,45.4,30.6,30.21,North,0,0.0,0.0,56,0.00,,,0.00,WUHU216HW,2013-02-22 15:52:00,
2013-02-22 07:57:00,45.8,31.0,30.21,North,0,0.0,0.0,56,0.00,,,0.00,WUHU216HW,2013-02-22 15:57:00,
2013-02-22 08:02:00,46.0,31.2,30.22,North,0,0.0,0.0,56,0.00,,,0.00,WUHU216HW,2013-02-22 16:02:00,
2013-02-22 08:07:00,46.3,31.5,30.22,North,0,0.0,0.0,56,0.00,,,0.00,WUHU216HW,2013-02-22 16:07:00,
2013-02-22 08:12:00,46.6,31.7,30.22,North,0,0.0,0.0,56,0.00,,,0.00,WUHU216HW,2013-02-22 16:12:00,
2013-02-22 08:17:00,46.8,31.5,30.23,North,0,0.0,0.0,55,0.00,,,0.00,WUHU216HW,2013-02-22 16:17:00,
2013-02-22 08:22:00,47.0,31.7,30.23,North,0,0.0,0.0,55,0.00,,,0.00,WUHU216HW,2013-02-22 16:22:00,
2013-02-22 08:27:00,47.0,31.7,30.23,North,0,0.0,0.0,55,0.00,,,0.00,WUHU216HW,2013-02-22 16:27:00,
2013-02-22 08:33:00,47.1,31.8,30.23,North,0,0.0,0.0,55,0.00,,,0.00,WUHU216HW,2013-02-22 16:33:00,
2013-02-22 08:38:00,47.6,32.2,30.23,North,0,0.0,0.0,55,0.00,,,0.00,WUHU216HW,2013-02-22 16:38:00,
2013-02-22 08:43:00,47.8,32.4,30.24,North,0,0.0,0.0,55,0.00,,,0.00,WUHU216HW,2013-02-22 16:43:00,
2013-02-22 08:48:00,48.0,31.7,30.24,North,0,0.0,0.0,53,0.00,,,0.00,WUHU216HW,2013-02-22 16:48:00,
2013-02-22 08:53:00,48.5,32.2,30.24,North,0,0.0,0.0,53,0.00,,,0.00,WUHU216HW,2013-02-22 16:53:00,
2013-02-22 08:58:00,49.0,32.7,30.24,North,0,0.0,0.0,53,0.00,,,0.00,WUHU216HW,2013-02-22 16:58:00,
2013-02-22 09:03:00,49.5,32.6,30.24,North,0,0.0,0.0,52,0.00,,,0.00,WUHU216HW,2013-02-22 17:03:00,
2013-02-22 09:08:00,49.9,33.0,30.24,North,0,0.0,0.0,52,0.00,,,0.00,WUHU216HW,2013-02-22 17:08:00,
2013-02-22 09:14:00,49.9,32.5,30.24,North,0,0.0,0.0,51,0.00,,,0.00,WUHU216HW,2013-02-22 17:14:00,
2013-02-22 09:19:00,50.0,32.6,30.24,North,0,0.0,0.0,51,0.00,,,0.00,WUHU216HW,2013-02-22 17:19:00,
2013-02-22 09:24:00,50.5,33.0,30.24,North,0,0.0,0.0,51,0.00,,,0.00,WUHU216HW,2013-02-22 17:24:00,
2013-02-22 09:29:00,51.0,33.5,30.25,North,0,0.0,0.0,51,0.00,,,0.00,WUHU216HW,2013-02-22 17:29:00,
2013-02-22 09:34:00,51.4,33.4,30.25,North,0,0.0,0.0,50,0.00,,,0.00,WUHU216HW,2013-02-22 17:34:00,
2013-02-22 09:39:00,51.4,33.4,30.25,North,0,0.0,0.0,50,0.00,,,0.00,WUHU216HW,2013-02-22 17:39:00,
2013-02-22 09:45:00,51.9,32.2,30.25,North,0,0.0,0.0,47,0.00,,,0.00,WUHU216HW,2013-02-22 17:45:00,
2013-02-22 09:50:00,52.2,31.9,30.25,North,0,0.0,0.0,46,0.00,,,0.00,WUHU216HW,2013-02-22 17:50:00,
2013-02-22 09:55:00,52.6,33.4,30.25,North,0,0.0,0.0,48,0.00,,,0.00,WUHU216HW,2013-02-22 17:55:00,
2013-02-22 10:00:00,53.1,34.4,30.25,North,0,0.0,0.0,49,0.00,,,0.00,WUHU216HW,2013-02-22 18:00:00,
2013-02-22 10:05:00,54.4,35.1,30.25,North,0,0.0,0.0,48,0.00,,,0.00,WUHU216HW,2013-02-22 18:05:00,
2013-02-22 10:10:00,56.3,37.3,30.25,North,0,0.0,0.0,49,0.00,,,0.00,WUHU216HW,2013-02-22 18:10:00,
2013-02-22 10:15:00,55.9,33.6,30.25,North,0,0.0,0.0,43,0.00,,,0.00,WUHU216HW,2013-02-22 18:15:00,
2013-02-22 10:21:00,55.0,34.5,30.25,North,0,0.0,0.0,46,0.00,,,0.00,WUHU216HW,2013-02-22 18:21:00,
2013-02-22 10:26:00,54.5,34.1,30.25,North,0,0.0,0.0,46,0.00,,,0.00,WUHU216HW,2013-02-22 18:26:00,
2013-02-22 10:31:00,54.5,34.1,30.25,North,0,0.0,0.0,46,0.00,,,0.00,WUHU216HW,2013-02-22 18:31:00,
2013-02-22 10:36:00,54.8,35.4,30.25,North,0,0.0,0.0,48,0.00,,,0.00,WUHU216HW,2013-02-22 18:36:00,
2013-02-22 10:41:00,54.4,35.0,30.25,North,0,0.0,0.0,48,0.00,,,0.00,WUHU216HW,2013-02-22 18:41:00,
2013-02-22 10:46:00,54.4,35.6,30.25,North,0,0.0,0.0,49,0.00,,,0.00,WUHU216HW,2013-02-22 18:46:00,
2013-02-22 10:51:00,54.6,34.2,30.25,North,0,0.0,0.0,46,0.00,,,0.00,WUHU216HW,2013-02-22 18:51:00,
2013-02-22 10:56:00,54.6,35.3,30.25,North,0,0.0,0.0,48,0.00,,,0.00,WUHU216HW,2013-02-22 18:56:00,
2013-02-22 11:01:00,54.7,35.3,30.25,North,0,0.0,0.0,48,0.00,,,0.00,WUHU216HW,2013-02-22 19:01:00,
2013-02-22 11:06:00,55.0,36.7,30.25,North,0,0.0,0.0,50,0.00,,,0.00,WUHU216HW,2013-02-22 19:06:00,
2013-02-22 11:11:00,55.0,36.7,30.25,North,0,0.0,0.0,50,0.00,,,0.00,WUHU216HW,2013-02-22 19:11:00,
2013-02-22 11:17:00,54.9,36.6,30.25,North,0,0.0,0.0,50,0.00,,,0.00,WUHU216HW,2013-02-22 19:17:00,
2013-02-22 11:22:00,54.9,36.6,30.25,North,0,0.0,0.0,50,0.00,,,0.00,WUHU216HW,2013-02-22 19:22:00,
2013-02-22 11:27:00,54.7,35.9,30.25,North,0,0.0,0.0,49,0.00,,,0.00,WUHU216HW,2013-02-22 19:27:00,
2013-02-22 11:32:00,54.8,35.9,30.25,North,0,0.0,0.0,49,0.00,,,0.00,WUHU216HW,2013-02-22 19:32:00,
2013-02-22 11:37:00,55.0,36.1,30.25,North,0,0.0,0.0,49,0.00,,,0.00,WUHU216HW,2013-02-22 19:37:00,
2013-02-22 11:42:00,55.3,37.0,30.25,North,0,0.0,0.0,50,0.00,,,0.00,WUHU216HW,2013-02-22 19:42:00,
2013-02-22 11:47:00,55.5,37.2,30.25,North,0,0.0,0.0,50,0.00,,,0.00,WUHU216HW,2013-02-22 19:47:00,
2013-02-22 11:52:00,55.9,36.5,30.25,North,0,0.0,0.0,48,0.00,,,0.00,WUHU216HW,2013-02-22 19:52:00,
2013-02-22 11:57:00,55.9,35.4,30.25,North,0,0.0,0.0,46,0.00,,,0.00,WUHU216HW,2013-02-22 19:57:00,
2013-02-22 12:02:00,55.8,35.2,30.25,North,0,0.0,0.0,46,0.00,,,0.00,WUHU216HW,2013-02-22 20:02:00,
2013-02-22 12:07:00,56.1,35.5,30.25,North,0,0.0,0.0,46,0.00,,,0.00,WUHU216HW,2013-02-22 20:07:00,
2013-02-22 12:12:00,56.1,34.9,30.25,North,0,0.0,0.0,45,0.00,,,0.00,WUHU216HW,2013-02-22 20:12:00,
2013-02-22 12:18:00,56.0,35.4,30.24,North,0,0.0,0.0,46,0.00,,,0.00,WUHU216HW,2013-02-22 20:18:00,
2013-02-22 12:23:00,56.5,35.9,30.24,North,0,0.0,0.0,46,0.00,,,0.00,WUHU216HW,2013-02-22 20:23:00,
2013-02-22 12:28:00,56.7,35.5,30.24,North,0,0.0,0.0,45,0.00,,,0.00,WUHU216HW,2013-02-22 20:28:00,
2013-02-22 12:33:00,56.7,35.5,30.23,North,0,0.0,0.0,45,0.00,,,0.00,WUHU216HW,2013-02-22 20:33:00,
2013-02-22 12:38:00,56.7,36.1,30.23,North,0,0.0,0.0,46,0.00,,,0.00,WUHU216HW,2013-02-22 20:38:00,
2013-02-22 12:43:00,56.8,36.7,30.23,North,0,0.0,0.0,47,0.00,,,0.00,WUHU216HW,2013-02-22 20:43:00,
2013-02-22 12:48:00,57.0,36.3,30.23,North,0,0.0,0.0,46,0.00,,,0.00,WUHU216HW,2013-02-22 20:48:00,
2013-02-22 12:53:00,57.9,37.7,30.23,North,0,0.0,0.0,47,0.00,,,0.00,WUHU216HW,2013-02-22 20:53:00,
2013-02-22 12:58:00,57.9,37.7,30.23,North,0,0.0,0.0,47,0.00,,,0.00,WUHU216HW,2013-02-22 20:58:00,
2013-02-22 13:03:00,57.7,37.0,30.23,North,0,0.0,0.0,46,0.00,,,0.00,WUHU216HW,2013-02-22 21:03:00,
2013-02-22 13:08:00,57.5,36.2,30.22,North,0,0.0,0.0,45,0.00,,,0.00,WUHU216HW,2013-02-22 21:08:00,
2013-02-22 13:13:00,57.5,36.8,30.22,North,0,0.0,0.0,46,0.00,,,0.00,WUHU216HW,2013-02-22 21:13:00,
2013-02-22 13:19:00,57.9,36.6,30.22,North,0,0.0,0.0,45,0.00,,,0.00,WUHU216HW,2013-02-22 21:19:00,
2013-02-22 13:24:00,57.7,35.9,30.21,North,0,0.0,0.0,44,0.00,,,0.00,WUHU216HW,2013-02-22 21:24:00,
2013-02-22 13:29:00,57.9,36.0,30.21,North,0,0.0,0.0,44,0.00,,,0.00,WUHU216HW,2013-02-22 21:29:00,
2013-02-22 13:34:00,58.0,36.7,30.21,North,0,0.0,0.0,45,0.00,,,0.00,WUHU216HW,2013-02-22 21:34:00,
2013-02-22 13:39:00,58.3,36.3,30.21,North,0,0.0,0.0,44,0.00,,,0.00,WUHU216HW,2013-02-22 21:39:00,
2013-02-22 13:44:00,58.0,36.1,30.21,North,0,0.0,0.0,44,0.00,,,0.00,WUHU216HW,2013-02-22 21:44:00,
2013-02-22 13:49:00,58.7,36.7,30.21,North,0,0.0,0.0,44,0.00,,,0.00,WUHU216HW,2013-02-22 21:49:00,
2013-02-22 13:54:00,58.9,36.3,30.20,North,0,0.0,0.0,43,0.00,,,0.00,WUHU216HW,2013-02-22 21:54:00,
2013-02-22 13:59:00,59.6,35.7,30.20,North,0,0.0,0.0,41,0.00,,,0.00,WUHU216HW,2013-02-22 21:59:00,
2013-02-22 14:04:00,59.8,37.1,30.20,North,0,0.0,0.0,43,0.00,,,0.00,WUHU216HW,2013-02-22 22:04:00,
2013-02-22 14:10:00,60.5,38.4,30.20,North,0,0.0,0.0,44,0.00,,,0.00,WUHU216HW,2013-02-22 22:10:00,
2013-02-22 14:15:00,60.3,37.6,30.20,North,0,0.0,0.0,43,0.00,,,0.00,WUHU216HW,2013-02-22 22:15:00,
2013-02-22 14:20:00,59.8,37.7,30.20,North,0,0.0,0.0,44,0.00,,,0.00,WUHU216HW,2013-02-22 22:20:00,
2013-02-22 14:25:00,59.8,37.7,30.19,North,0,0.0,0.0,44,0.00,,,0.00,WUHU216HW,2013-02-22 22:25:00,
2013-02-22 14:30:00,59.6,38.1,30.19,North,0,0.0,0.0,45,0.00,,,0.00,WUHU216HW,2013-02-22 22:30:00,
2013-02-22 14:35:00,59.6,38.7,30.19,North,0,0.0,0.0,46,0.00,,,0.00,WUHU216HW,2013-02-22 22:35:00,
2013-02-22 14:40:00,59.8,38.9,30.19,North,0,0.0,0.0,46,0.00,,,0.00,WUHU216HW,2013-02-22 22:40:00,
2013-02-22 14:45:00,59.8,38.9,30.19,North,0,0.0,0.0,46,0.00,,,0.00,WUHU216HW,2013-02-22 22:45:00,
2013-02-22 14:50:00,59.9,39.0,30.19,North,0,0.0,0.0,46,0.00,,,0.00,WUHU216HW,2013-02-22 22:50:00,
2013-02-22 14:55:00,59.9,39.6,30.19,North,0,0.0,0.0,47,0.00,,,0.00,WUHU216HW,2013-02-22 22:55:00,
2013-02-22 15:01:00,59.8,39.5,30.19,North,0,0.0,0.0,47,0.00,,,0.00,WUHU216HW,2013-02-22 23:01:00,
2013-02-22 15:06:00,59.8,40.0,30.20,North,0,0.0,0.0,48,0.00,,,0.00,WUHU216HW,2013-02-22 23:06:00,
2013-02-22 15:11:00,59.6,40.4,30.19,North,0,0.0,0.0,49,0.00,,,0.00,WUHU216HW,2013-02-22 23:11:00,
2013-02-22 15:16:00,59.8,40.0,30.19,North,0,0.0,0.0,48,0.00,,,0.00,WUHU216HW,2013-02-22 23:16:00,
2013-02-22 15:21:00,59.9,40.1,30.19,North,0,0.0,0.0,48,0.00,,,0.00,WUHU216HW,2013-02-22 23:21:00,
2013-02-22 15:26:00,59.8,40.0,30.19,North,0,0.0,0.0,48,0.00,,,0.00,WUHU216HW,2013-02-22 23:26:00,
2013-02-22 15:31:00,59.8,39.5,30.19,North,0,0.0,0.0,47,0.00,,,0.00,WUHU216HW,2013-02-22 23:31:00,
2013-02-22 15:36:00,59.8,39.5,30.19,North,0,0.0,0.0,47,0.00,,,0.00,WUHU216HW,2013-02-22 23:36:00,
2013-02-22 15:41:00,59.8,40.0,30.19,North,0,0.0,0.0,48,0.00,,,0.00,WUHU216HW,2013-02-22 23:41:00,
2013-02-22 15:46:00,59.9,40.1,30.19,North,0,0.0,0.0,48,0.00,,,0.00,WUHU216HW,2013-02-22 23:46:00,
2013-02-22 15:51:00,59.9,40.1,30.19,North,0,0.0,0.0,48,0.00,,,0.00,WUHU216HW,2013-02-22 23:51:00,
2013-02-22 15:56:00,59.9,40.1,30.19,North,0,0.0,0.0,48,0.00,,,0.00,WUHU216HW,2013-02-22 23:56:00,
2013-02-22 16:02:00,59.8,39.5,30.19,North,0,0.0,0.0,47,0.00,,,0.00,WUHU216HW,2013-02-23 00:02:00,
2013-02-22 16:07:00,59.7,39.4,30.19,North,0,0.0,0.0,47,0.00,,,0.00,WUHU216HW,2013-02-23 00:07:00,
2013-02-22 16:12:00,59.7,40.0,30.19,North,0,0.0,0.0,48,0.00,,,0.00,WUHU216HW,2013-02-23 00:12:00,
2013-02-22 16:17:00,59.7,40.0,30.19,North,0,0.0,0.0,48,0.00,,,0.00,WUHU216HW,2013-02-23 00:17:00,
2013-02-22 16:22:00,59.7,40.0,30.19,North,0,0.0,0.0,48,0.00,,,0.00,WUHU216HW,2013-02-23 00:22:00,
2013-02-22 16:27:00,59.3,39.6,30.19,North,0,0.0,0.0,48,0.00,,,0.00,WUHU216HW,2013-02-23 00:27:00,
2013-02-22 16:32:00,58.9,39.8,30.19,North,0,0.0,0.0,49,0.00,,,0.00,WUHU216HW,2013-02-23 00:32:00,
2013-02-22 16:37:00,58.8,39.7,30.19,North,0,0.0,0.0,49,0.00,,,0.00,WUHU216HW,2013-02-23 00:37:00,
2013-02-22 16:42:00,58.9,40.3,30.19,North,0,0.0,0.0,50,0.00,,,0.00,WUHU216HW,2013-02-23 00:42:00,
2013-02-22 16:47:00,58.6,39.4,30.18,North,0,0.0,0.0,49,0.00,,,0.00,WUHU216HW,2013-02-23 00:47:00,
2013-02-22 16:52:00,58.4,39.8,30.18,North,0,0.0,0.0,50,0.00,,,0.00,WUHU216HW,2013-02-23 00:52:00,
2013-02-22 16:57:00,58.1,39.6,30.18,North,0,0.0,0.0,50,0.00,,,0.00,WUHU216HW,2013-02-23 00:57:00,
2013-02-22 17:02:00,57.8,39.3,30.18,North,0,0.0,0.0,50,0.00,,,0.00,WUHU216HW,2013-02-23 01:02:00,
2013-02-22 17:08:00,57.6,39.1,30.18,North,0,0.0,0.0,50,0.00,,,0.00,WUHU216HW,2013-02-23 01:08:00,
2013-02-22 17:13:00,57.4,38.9,30.18,North,0,0.0,0.0,50,0.00,,,0.00,WUHU216HW,2013-02-23 01:13:00,
2013-02-22 17:18:00,57.2,39.2,30.18,North,0,0.0,0.0,51,0.00,,,0.00,WUHU216HW,2013-02-23 01:18:00,
2013-02-22 17:23:00,57.0,39.0,30.18,North,0,0.0,0.0,51,0.00,,,0.00,WUHU216HW,2013-02-23 01:23:00,
2013-02-22 17:28:00,56.7,38.7,30.18,North,0,0.0,0.0,51,0.00,,,0.00,WUHU216HW,2013-02-23 01:28:00,
2013-02-22 17:33:00,56.4,39.1,30.18,North,0,0.0,0.0,52,0.00,,,0.00,WUHU216HW,2013-02-23 01:33:00,
2013-02-22 17:38:00,56.0,38.7,30.18,North,0,0.0,0.0,52,0.00,,,0.00,WUHU216HW,2013-02-23 01:38:00,
2013-02-22 17:43:00,55.9,39.1,30.18,North,0,0.0,0.0,53,0.00,,,0.00,WUHU216HW,2013-02-23 01:43:00,
2013-02-22 17:48:00,55.9,38.6,30.18,North,0,0.0,0.0,52,0.00,,,0.00,WUHU216HW,2013-02-23 01:48:00,
2013-02-22 17:53:00,55.7,38.4,30.18,North,0,0.0,0.0,52,0.00,,,0.00,WUHU216HW,2013-02-23 01:53:00,
2013-02-22 17:58:00,55.5,38.7,30.18,North,0,0.0,0.0,53,0.00,,,0.00,WUHU216HW,2013-02-23 01:58:00,
2013-02-22 18:03:00,55.3,38.4,30.18,North,0,0.0,0.0,53,0.00,,,0.00,WUHU216HW,2013-02-23 02:03:00,
2013-02-22 18:08:00,55.0,38.7,30.18,North,0,0.0,0.0,54,0.00,,,0.00,WUHU216HW,2013-02-23 02:08:00,
2013-02-22 18:13:00,54.9,38.6,30.18,North,0,0.0,0.0,54,0.00,,,0.00,WUHU216HW,2013-02-23 02:13:00,
2013-02-22 18:18:00,54.7,38.4,30.18,North,0,0.0,0.0,54,0.00,,,0.00,WUHU216HW,2013-02-23 02:18:00,
2013-02-22 18:24:00,54.3,38.0,30.18,North,0,0.0,0.0,54,0.00,,,0.00,WUHU216HW,2013-02-23 02:24:00,
2013-02-22 18:29:00,54.3,38.0,30.18,North,0,0.0,0.0,54,0.00,,,0.00,WUHU216HW,2013-02-23 02:29:00,
2013-02-22 18:34:00,54.2,37.5,30.18,North,0,0.0,0.0,53,0.00,,,0.00,WUHU216HW,2013-02-23 02:34:00,
2013-02-22 18:39:00,54.0,37.8,30.19,North,0,0.0,0.0,54,0.00,,,0.00,WUHU216HW,2013-02-23 02:39:00,
2013-02-22 18:44:00,53.9,37.7,30.20,North,0,0.0,0.0,54,0.00,,,0.00,WUHU216HW,2013-02-23 02:44:00,
2013-02-22 18:49:00,53.7,37.5,30.19,North,0,0.0,0.0,54,0.00,,,0.00,WUHU216HW,2013-02-23 02:49:00,
2013-02-22 18:54:00,53.5,37.8,30.20,North,0,0.0,0.0,55,0.00,,,0.00,WUHU216HW,2013-02-23 02:54:00,
2013-02-22 18:59:00,53.1,37.4,30.20,North,0,0.0,0.0,55,0.00,,,0.00,WUHU216HW,2013-02-23 02:59:00,
2013-02-22 19:04:00,52.9,37.3,30.20,North,0,0.0,0.0,55,0.00,,,0.00,WUHU216HW,2013-02-23 03:04:00,
2013-02-22 19:09:00,52.7,37.5,30.20,North,0,0.0,0.0,56,0.00,,,0.00,WUHU216HW,2013-02-23 03:09:00,
2013-02-22 19:14:00,52.7,37.5,30.20,North,0,0.0,0.0,56,0.00,,,0.00,WUHU216HW,2013-02-23 03:14:00,
2013-02-22 19:20:00,52.3,37.1,30.19,North,0,0.0,0.0,56,0.00,,,0.00,WUHU216HW,2013-02-23 03:20:00,
2013-02-22 19:25:00,52.1,36.9,30.19,North,0,0.0,0.0,56,0.00,,,0.00,WUHU216HW,2013-02-23 03:25:00,
2013-02-22 19:30:00,52.0,36.9,30.19,North,0,0.0,0.0,56,0.00,,,0.00,WUHU216HW,2013-02-23 03:30:00,
2013-02-22 19:35:00,51.9,36.8,30.19,North,0,0.0,0.0,56,0.00,,,0.00,WUHU216HW,2013-02-23 03:35:00,
2013-02-22 19:40:00,51.9,36.7,30.19,North,0,0.0,0.0,56,0.00,,,0.00,WUHU216HW,2013-02-23 03:40:00,
2013-02-22 19:45:00,51.9,37.2,30.19,North,0,0.0,0.0,57,0.00,,,0.00,WUHU216HW,2013-02-23 03:45:00,
2013-02-22 19:50:00,51.6,37.0,30.18,North,0,0.0,0.0,57,0.00,,,0.00,WUHU216HW,2013-02-23 03:50:00,
2013-02-22 19:55:00,51.4,36.7,30.18,North,0,0.0,0.0,57,0.00,,,0.00,WUHU216HW,2013-02-23 03:55:00,
2013-02-22 20:00:00,50.9,36.3,30.18,North,0,0.0,0.0,57,0.00,,,0.00,WUHU216HW,2013-02-23 04:00:00,
2013-02-22 20:05:00,50.8,36.2,30.18,North,0,0.0,0.0,57,0.00,,,0.00,WUHU216HW,2013-02-23 04:05:00,
2013-02-22 20:11:00,50.4,35.8,30.18,North,0,0.0,0.0,57,0.00,,,0.00,WUHU216HW,2013-02-23 04:11:00,
2013-02-22 20:16:00,50.3,35.7,30.19,North,0,0.0,0.0,57,0.00,,,0.00,WUHU216HW,2013-02-23 04:16:00,
2013-02-22 20:21:00,50.1,35.0,30.19,North,0,0.0,0.0,56,0.00,,,0.00,WUHU216HW,2013-02-23 04:21:00,
2013-02-22 20:26:00,49.8,34.8,30.19,North,0,0.0,0.0,56,0.00,,,0.00,WUHU216HW,2013-02-23 04:26:00,
2013-02-22 20:31:00,49.7,34.7,30.20,North,0,0.0,0.0,56,0.00,,,0.00,WUHU216HW,2013-02-23 04:31:00,
2013-02-22 20:36:00,49.5,34.5,30.20,North,0,0.0,0.0,56,0.00,,,0.00,WUHU216HW,2013-02-23 04:36:00,
2013-02-22 20:41:00,49.2,34.2,30.20,North,0,0.0,0.0,56,0.00,,,0.00,WUHU216HW,2013-02-23 04:41:00,
2013-02-22 20:46:00,49.2,34.2,30.20,North,0,0.0,0.0,56,0.00,,,0.00,WUHU216HW,2013-02-23 04:46:00,
2013-02-22 20:51:00,48.9,34.0,30.20,North,0,0.0,0.0,56,0.00,,,0.00,WUHU216HW,2013-02-23 04:51:00,
2013-02-22 20:56:00,48.9,34.0,30.19,North,0,0.0,0.0,56,0.00,,,0.00,WUHU216HW,2013-02-23 04:56:00,
2013-02-22 21:00:00,48.9,33.9,30.20,North,0,0.0,0.0,56,0.00,,,0.00,WUHU216HW,2013-02-23 05:00:00,
2013-02-22 21:05:00,48.9,33.9,30.20,North,0,0.0,0.0,56,0.00,,,0.00,WUHU216HW,2013-02-23 05:05:00,
2013-02-22 21:10:00,48.7,33.7,30.19,North,0,0.0,0.0,56,0.00,,,0.00,WUHU216HW,2013-02-23 05:10:00,
2013-02-22 21:15:00,48.7,33.2,30.20,North,0,0.0,0.0,55,0.00,,,0.00,WUHU216HW,2013-02-23 05:15:00,
2013-02-22 21:20:00,48.3,32.9,30.20,North,0,0.0,0.0,55,0.00,,,0.00,WUHU216HW,2013-02-23 05:20:00,
2013-02-22 21:25:00,48.1,32.3,30.20,North,0,0.0,0.0,54,0.00,,,0.00,WUHU216HW,2013-02-23 05:25:00,
2013-02-22 21:30:00,48.1,32.3,30.21,North,0,0.0,0.0,54,0.00,,,0.00,WUHU216HW,2013-02-23 05:30:00,
2013-02-22 21:35:00,47.9,31.6,30.21,North,0,0.0,0.0,53,0.00,,,0.00,WUHU216HW,2013-02-23 05:35:00,
2013-02-22 21:41:00,47.7,31.4,30.21,North,0,0.0,0.0,53,0.00,,,0.00,WUHU216HW,2013-02-23 05:41:00,
2013-02-22 21:46:00,47.5,31.3,30.21,North,0,0.0,0.0,53,0.00,,,0.00,WUHU216HW,2013-02-23 05:46:00,
2013-02-22 21:51:00,47.3,31.1,30.21,North,0,0.0,0.0,53,0.00,,,0.00,WUHU216HW,2013-02-23 05:51:00,
2013-02-22 21:56:00,47.1,30.4,30.21,North,0,0.0,0.0,52,0.00,,,0.00,WUHU216HW,2013-02-23 05:56:00,
2013-02-22 22:01:00,46.7,30.0,30.21,North,0,0.0,0.0,52,0.00,,,0.00,WUHU216HW,2013-02-23 06:01:00,
2013-02-22 22:06:00,46.7,28.5,30.21,North,0,0.0,0.0,49,0.00,,,0.00,WUHU216HW,2013-02-23 06:06:00,
2013-02-22 22:11:00,46.6,29.0,30.21,North,0,0.0,0.0,50,0.00,,,0.00,WUHU216HW,2013-02-23 06:11:00,
2013-02-22 22:16:00,46.5,28.3,30.22,North,0,0.0,0.0,49,0.00,,,0.00,WUHU216HW,2013-02-23 06:16:00,
2013-02-22 22:21:00,46.3,28.6,30.22,North,0,0.0,0.0,50,0.00,,,0.00,WUHU216HW,2013-02-23 06:21:00,
2013-02-22 22:27:00,46.3,28.6,30.22,North,0,0.0,0.0,50,0.00,,,0.00,WUHU216HW,2013-02-23 06:27:00,
2013-02-22 22:32:00,46.1,27.9,30.22,North,0,0.0,0.0,49,0.00,,,0.00,WUHU216HW,2013-02-23 06:32:00,
2013-02-22 22:37:00,45.9,27.7,30.21,North,0,0.0,0.0,49,0.00,,,0.00,WUHU216HW,2013-02-23 06:37:00,
2013-02-22 22:42:00,45.7,28.0,30.21,North,0,0.0,0.0,50,0.00,,,0.00,WUHU216HW,2013-02-23 06:42:00,
2013-02-22 22:47:00,45.5,26.9,30.21,North,0,0.0,0.0,48,0.00,,,0.00,WUHU216HW,2013-02-23 06:47:00,
2013-02-22 22:52:00,45.5,26.9,30.22,North,0,0.0,0.0,48,0.00,,,0.00,WUHU216HW,2013-02-23 06:52:00,
2013-02-22 22:57:00,45.3,26.7,30.22,North,0,0.0,0.0,48,0.00,,,0.00,WUHU216HW,2013-02-23 06:57:00,
2013-02-22 23:02:00,45.1,26.5,30.21,North,0,0.0,0.0,48,0.00,,,0.00,WUHU216HW,2013-02-23 07:02:00,
2013-02-22 23:07:00,44.9,25.8,30.21,North,0,0.0,0.0,47,0.00,,,0.00,WUHU216HW,2013-02-23 07:07:00,
2013-02-22 23:12:00,44.9,25.8,30.21,North,0,0.0,0.0,47,0.00,,,0.00,WUHU216HW,2013-02-23 07:12:00,
2013-02-22 23:17:00,44.6,25.6,30.21,North,0,0.0,0.0,47,0.00,,,0.00,WUHU216HW,2013-02-23 07:17:00,
2013-02-22 23:22:00,44.5,24.9,30.20,North,0,0.0,0.0,46,0.00,,,0.00,WUHU216HW,2013-02-23 07:22:00,
2013-02-22 23:27:00,44.3,25.3,30.20,North,0,0.0,0.0,47,0.00,,,0.00,WUHU216HW,2013-02-23 07:27:00,
2013-02-22 23:32:00,43.9,25.4,30.20,North,0,0.0,0.0,48,0.00,,,0.00,WUHU216HW,2013-02-23 07:32:00,
2013-02-22 23:38:00,44.1,24.0,30.20,North,0,0.0,0.0,45,0.00,,,0.00,WUHU216HW,2013-02-23 07:38:00,
2013-02-22 23:43:00,44.1,24.0,30.20,North,0,0.0,0.0,45,0.00,,,0.00,WUHU216HW,2013-02-23 07:43:00,
2013-02-22 23:48:00,44.3,24.1,30.19,North,0,0.0,0.0,45,0.00,,,0.00,WUHU216HW,2013-02-23 07:48:00,
2013-02-22 23:53:00,44.1,23.9,30.20,North,0,0.0,0.0,45,0.00,,,0.00,WUHU216HW,2013-02-23 07:53:00,
2013-02-22 23:58:00,43.9,23.2,30.19,North,0,0.0,0.0,44,0.00,,,0.00,WUHU216HW,2013-02-23 07:58:00,